PWSweather.com
Personal Weather Stations
Station Observations
MENWDWX1
Menstrie, ScotlandGB

MenstrieScotlandGB

Lat: 56.148322, Lon: -3.85483

Elevation: 62

Station Type: Davis Vantage Pro 2

High Low Average
Temperature 57.4°F14.1°C 38.0°F3.3°C 47.4°F8.6°C
Dew Point 47.5°F8.6°C 32.1°F0.1°C 40.2°F4.6°C
Winds 9.2 mph 14.8 kmh Calm Calm 2.0 mph SSW3.2 kmh SSW
Wind Gusts 12.7 mph20.4 kmh -- 4.0 mph6.4 kmh
Humidity 80% 59% 76%
Pressure 29.89 in1012.2 mb 29.48 in998.3 mb -
Precipitation 0.00 in0.0 mm - -
Hour Temp Dew Point Humidity Winds Wind Gusts Pressure Precip Precip Rate Daily Precip Total
12:00 AM 49.3°F9.6°C 42.7°F5.9°C 78% 5.8 mph W9.3 kmh W 12.7 mph20.4 kmh 29.48 in998.3 mb - 0.00 in0.0 mm 0.00 in0.0 mm
12:05 AM 49.4°F9.7°C 42.8°F6.0°C 78% 6.9 mph W11.1 kmh W 10.4 mph16.7 kmh 29.48 in998.3 mb - 0.00 in0.0 mm 0.00 in0.0 mm
12:10 AM 49.4°F9.7°C 42.8°F6.0°C 78% 5.8 mph W9.3 kmh W 11.5 mph18.5 kmh 29.48 in998.3 mb - 0.00 in0.0 mm 0.00 in0.0 mm
12:15 AM 49.2°F9.6°C 42.6°F5.9°C 78% 5.8 mph W9.3 kmh W 8.1 mph13.0 kmh 29.49 in998.6 mb - 0.00 in0.0 mm 0.00 in0.0 mm
12:20 AM 49.1°F9.5°C 42.5°F5.8°C 78% 5.8 mph W9.3 kmh W 9.2 mph14.8 kmh 29.50 in999.0 mb - 0.00 in0.0 mm 0.00 in0.0 mm
12:25 AM 48.9°F9.4°C 42.3°F5.7°C 78% 3.5 mph W5.6 kmh W 8.1 mph13.0 kmh 29.50 in999.0 mb - 0.00 in0.0 mm 0.00 in0.0 mm
12:30 AM 48.7°F9.3°C 42.2°F5.7°C 78% 4.6 mph WSW7.4 kmh WSW 8.1 mph13.0 kmh 29.50 in999.0 mb - 0.00 in0.0 mm 0.00 in0.0 mm
12:35 AM 48.6°F9.2°C 42.0°F5.6°C 78% 6.9 mph W11.1 kmh W 10.4 mph16.7 kmh 29.50 in999.0 mb - 0.00 in0.0 mm 0.00 in0.0 mm
12:40 AM 48.6°F9.2°C 42.0°F5.6°C 78% 6.9 mph W11.1 kmh W 10.4 mph16.7 kmh 29.51 in999.3 mb - 0.00 in0.0 mm 0.00 in0.0 mm
12:45 AM 48.6°F9.2°C 42.0°F5.6°C 78% 5.8 mph W9.3 kmh W 9.2 mph14.8 kmh 29.52 in999.7 mb - 0.00 in0.0 mm 0.00 in0.0 mm
12:50 AM 48.7°F9.3°C 42.1°F5.6°C 78% 3.5 mph W5.6 kmh W 11.5 mph18.5 kmh 29.51 in999.3 mb - 0.00 in0.0 mm 0.00 in0.0 mm
12:55 AM 48.6°F9.2°C 42.0°F5.6°C 78% 6.9 mph WNW11.1 kmh WNW 11.5 mph18.5 kmh 29.51 in999.3 mb - 0.00 in0.0 mm 0.00 in0.0 mm
01:00 AM 48.6°F9.2°C 42.0°F5.6°C 78% 5.8 mph WNW9.3 kmh WNW 9.2 mph14.8 kmh 29.52 in999.7 mb - 0.00 in0.0 mm 0.00 in0.0 mm
01:05 AM 48.5°F9.2°C 42.0°F5.6°C 78% 4.6 mph W7.4 kmh W 11.5 mph18.5 kmh 29.52 in999.7 mb - 0.00 in0.0 mm 0.00 in0.0 mm
01:10 AM 48.5°F9.2°C 41.9°F5.5°C 78% 6.9 mph WNW11.1 kmh WNW 9.2 mph14.8 kmh 29.52 in999.7 mb - 0.00 in0.0 mm 0.00 in0.0 mm
01:15 AM 48.4°F9.1°C 41.9°F5.5°C 78% 4.6 mph W7.4 kmh W 6.9 mph11.1 kmh 29.52 in999.7 mb - 0.00 in0.0 mm 0.00 in0.0 mm
01:20 AM 48.3°F9.1°C 41.8°F5.4°C 78% 6.9 mph W11.1 kmh W 11.5 mph18.5 kmh 29.52 in999.7 mb - 0.00 in0.0 mm 0.00 in0.0 mm
01:25 AM 48.1°F8.9°C 41.6°F5.3°C 78% 3.5 mph W5.6 kmh W 5.8 mph9.3 kmh 29.53 in1000.0 mb - 0.00 in0.0 mm 0.00 in0.0 mm
01:30 AM 47.9°F8.8°C 41.4°F5.2°C 78% 5.8 mph WSW9.3 kmh WSW 10.4 mph16.7 kmh 29.54 in1000.3 mb - 0.00 in0.0 mm 0.00 in0.0 mm
01:35 AM 47.8°F8.8°C 41.3°F5.2°C 78% 6.9 mph W11.1 kmh W 10.4 mph16.7 kmh 29.54 in1000.3 mb - 0.00 in0.0 mm 0.00 in0.0 mm
01:40 AM 47.7°F8.7°C 41.2°F5.1°C 78% 4.6 mph W7.4 kmh W 9.2 mph14.8 kmh 29.54 in1000.3 mb - 0.00 in0.0 mm 0.00 in0.0 mm
01:45 AM 47.6°F8.7°C 41.1°F5.1°C 78% 4.6 mph W7.4 kmh W 6.9 mph11.1 kmh 29.54 in1000.3 mb - 0.00 in0.0 mm 0.00 in0.0 mm
01:50 AM 47.4°F8.6°C 40.9°F4.9°C 78% 4.6 mph W7.4 kmh W 5.8 mph9.3 kmh 29.55 in1000.7 mb - 0.00 in0.0 mm 0.00 in0.0 mm
01:55 AM 47.3°F8.5°C 40.8°F4.9°C 78% 4.6 mph W7.4 kmh W 6.9 mph11.1 kmh 29.54 in1000.3 mb - 0.00 in0.0 mm 0.00 in0.0 mm
02:00 AM 47.1°F8.4°C 40.6°F4.8°C 78% 6.9 mph W11.1 kmh W 9.2 mph14.8 kmh 29.55 in1000.7 mb - 0.00 in0.0 mm 0.00 in0.0 mm
02:05 AM 47.1°F8.4°C 40.6°F4.8°C 78% 4.6 mph W7.4 kmh W 6.9 mph11.1 kmh 29.55 in1000.7 mb - 0.00 in0.0 mm 0.00 in0.0 mm
02:10 AM 47.1°F8.4°C 40.6°F4.8°C 78% 4.6 mph W7.4 kmh W 8.1 mph13.0 kmh 29.55 in1000.7 mb - 0.00 in0.0 mm 0.00 in0.0 mm
02:15 AM 47.3°F8.5°C 40.8°F4.9°C 78% 5.8 mph W9.3 kmh W 8.1 mph13.0 kmh 29.55 in1000.7 mb - 0.00 in0.0 mm 0.00 in0.0 mm
02:20 AM 47.4°F8.6°C 40.9°F4.9°C 78% 6.9 mph W11.1 kmh W 12.7 mph20.4 kmh 29.56 in1001.0 mb - 0.00 in0.0 mm 0.00 in0.0 mm
02:25 AM 47.6°F8.7°C 41.1°F5.1°C 78% 9.2 mph WSW14.8 kmh WSW 11.5 mph18.5 kmh 29.56 in1001.0 mb - 0.00 in0.0 mm 0.00 in0.0 mm
02:30 AM 47.7°F8.7°C 41.2°F5.1°C 78% 6.9 mph W11.1 kmh W 11.5 mph18.5 kmh 29.56 in1001.0 mb - 0.00 in0.0 mm 0.00 in0.0 mm
02:35 AM 47.8°F8.8°C 41.2°F5.1°C 78% 6.9 mph W11.1 kmh W 11.5 mph18.5 kmh 29.56 in1001.0 mb - 0.00 in0.0 mm 0.00 in0.0 mm
02:40 AM 47.7°F8.7°C 41.2°F5.1°C 78% 4.6 mph WSW7.4 kmh WSW 9.2 mph14.8 kmh 29.57 in1001.4 mb - 0.00 in0.0 mm 0.00 in0.0 mm
02:45 AM 47.6°F8.7°C 41.1°F5.1°C 78% 4.6 mph W7.4 kmh W 8.1 mph13.0 kmh 29.57 in1001.4 mb - 0.00 in0.0 mm 0.00 in0.0 mm
02:50 AM 47.5°F8.6°C 41.0°F5.0°C 78% 2.3 mph W3.7 kmh W 5.8 mph9.3 kmh 29.58 in1001.7 mb - 0.00 in0.0 mm 0.00 in0.0 mm
02:55 AM 47.4°F8.6°C 40.9°F4.9°C 78% 3.5 mph W5.6 kmh W 6.9 mph11.1 kmh 29.58 in1001.7 mb - 0.00 in0.0 mm 0.00 in0.0 mm
03:00 AM 47.3°F8.5°C 40.8°F4.9°C 78% 4.6 mph WNW7.4 kmh WNW 8.1 mph13.0 kmh 29.59 in1002.0 mb - 0.00 in0.0 mm 0.00 in0.0 mm
03:05 AM 47.4°F8.6°C 40.9°F4.9°C 78% 6.9 mph W11.1 kmh W 9.2 mph14.8 kmh 29.59 in1002.0 mb - 0.00 in0.0 mm 0.00 in0.0 mm
03:10 AM 47.5°F8.6°C 41.3°F5.2°C 79% 4.6 mph W7.4 kmh W 9.2 mph14.8 kmh 29.59 in1002.0 mb - 0.00 in0.0 mm 0.00 in0.0 mm
03:15 AM 47.5°F8.6°C 41.3°F5.2°C 79% 6.9 mph W11.1 kmh W 12.7 mph20.4 kmh 29.59 in1002.0 mb - 0.00 in0.0 mm 0.00 in0.0 mm
03:20 AM 47.4°F8.6°C 41.2°F5.1°C 79% 5.8 mph W9.3 kmh W 9.2 mph14.8 kmh 29.60 in1002.4 mb - 0.00 in0.0 mm 0.00 in0.0 mm
03:25 AM 47.4°F8.6°C 41.2°F5.1°C 79% 6.9 mph W11.1 kmh W 11.5 mph18.5 kmh 29.60 in1002.4 mb - 0.00 in0.0 mm 0.00 in0.0 mm
03:30 AM 47.5°F8.6°C 41.3°F5.2°C 79% 4.6 mph WSW7.4 kmh WSW 8.1 mph13.0 kmh 29.60 in1002.4 mb - 0.00 in0.0 mm 0.00 in0.0 mm
03:35 AM 47.6°F8.7°C 41.4°F5.2°C 79% 6.9 mph W11.1 kmh W 11.5 mph18.5 kmh 29.60 in1002.4 mb - 0.00 in0.0 mm 0.00 in0.0 mm
03:40 AM 47.6°F8.7°C 41.4°F5.2°C 79% 5.8 mph W9.3 kmh W 10.4 mph16.7 kmh 29.60 in1002.4 mb - 0.00 in0.0 mm 0.00 in0.0 mm
03:45 AM 47.6°F8.7°C 41.4°F5.2°C 79% 5.8 mph W9.3 kmh W 6.9 mph11.1 kmh 29.61 in1002.7 mb - 0.00 in0.0 mm 0.00 in0.0 mm
03:50 AM 47.4°F8.6°C 41.2°F5.1°C 79% 4.6 mph W7.4 kmh W 5.8 mph9.3 kmh 29.61 in1002.7 mb - 0.00 in0.0 mm 0.00 in0.0 mm
03:55 AM 47.3°F8.5°C 41.1°F5.1°C 79% 4.6 mph W7.4 kmh W 9.2 mph14.8 kmh 29.61 in1002.7 mb - 0.00 in0.0 mm 0.00 in0.0 mm
04:00 AM 47.2°F8.4°C 41.0°F5.0°C 79% 4.6 mph W7.4 kmh W 10.4 mph16.7 kmh 29.62 in1003.0 mb - 0.00 in0.0 mm 0.00 in0.0 mm
04:05 AM 47.2°F8.4°C 41.0°F5.0°C 79% 4.6 mph WNW7.4 kmh WNW 8.1 mph13.0 kmh 29.62 in1003.0 mb - 0.00 in0.0 mm 0.00 in0.0 mm
04:10 AM 47.0°F8.3°C 40.8°F4.9°C 79% 4.6 mph W7.4 kmh W 6.9 mph11.1 kmh 29.63 in1003.4 mb - 0.00 in0.0 mm 0.00 in0.0 mm
04:15 AM 46.9°F8.3°C 40.7°F4.8°C 79% 5.8 mph W9.3 kmh W 9.2 mph14.8 kmh 29.63 in1003.4 mb - 0.00 in0.0 mm 0.00 in0.0 mm
04:20 AM 46.8°F8.2°C 40.6°F4.8°C 79% 4.6 mph W7.4 kmh W 5.8 mph9.3 kmh 29.64 in1003.7 mb - 0.00 in0.0 mm 0.00 in0.0 mm
04:25 AM 46.7°F8.2°C 40.5°F4.7°C 79% 3.5 mph W5.6 kmh W 6.9 mph11.1 kmh 29.64 in1003.7 mb - 0.00 in0.0 mm 0.00 in0.0 mm
04:30 AM 46.6°F8.1°C 40.4°F4.7°C 79% 4.6 mph W7.4 kmh W 5.8 mph9.3 kmh 29.64 in1003.7 mb - 0.00 in0.0 mm 0.00 in0.0 mm
04:35 AM 46.5°F8.1°C 40.3°F4.6°C 79% 3.5 mph NW5.6 kmh NW 10.4 mph16.7 kmh 29.64 in1003.7 mb - 0.00 in0.0 mm 0.00 in0.0 mm
04:40 AM 46.5°F8.1°C 40.3°F4.6°C 79% 6.9 mph WNW11.1 kmh WNW 10.4 mph16.7 kmh 29.65 in1004.1 mb - 0.00 in0.0 mm 0.00 in0.0 mm
04:45 AM 46.5°F8.1°C 40.3°F4.6°C 79% 5.8 mph WNW9.3 kmh WNW 9.2 mph14.8 kmh 29.65 in1004.1 mb - 0.00 in0.0 mm 0.00 in0.0 mm
04:50 AM 46.6°F8.1°C 40.4°F4.7°C 79% 5.8 mph WNW9.3 kmh WNW 10.4 mph16.7 kmh 29.65 in1004.1 mb - 0.00 in0.0 mm 0.00 in0.0 mm
04:55 AM 46.7°F8.2°C 40.5°F4.7°C 79% 5.8 mph WNW9.3 kmh WNW 10.4 mph16.7 kmh 29.66 in1004.4 mb - 0.00 in0.0 mm 0.00 in0.0 mm
05:00 AM 46.7°F8.2°C 40.5°F4.7°C 79% 5.8 mph WSW9.3 kmh WSW 9.2 mph14.8 kmh 29.66 in1004.4 mb - 0.00 in0.0 mm 0.00 in0.0 mm
05:05 AM 46.7°F8.2°C 40.5°F4.7°C 79% 3.5 mph W5.6 kmh W 4.6 mph7.4 kmh 29.66 in1004.4 mb - 0.00 in0.0 mm 0.00 in0.0 mm
05:10 AM 46.6°F8.1°C 40.4°F4.7°C 79% 3.5 mph WNW5.6 kmh WNW 5.8 mph9.3 kmh 29.66 in1004.4 mb - 0.00 in0.0 mm 0.00 in0.0 mm
05:15 AM 46.5°F8.1°C 40.3°F4.6°C 79% 3.5 mph W5.6 kmh W 3.5 mph5.6 kmh 29.66 in1004.4 mb - 0.00 in0.0 mm 0.00 in0.0 mm
05:20 AM 46.4°F8.0°C 40.2°F4.6°C 79% 3.5 mph WNW5.6 kmh WNW 8.1 mph13.0 kmh 29.66 in1004.4 mb - 0.00 in0.0 mm 0.00 in0.0 mm
05:25 AM 46.3°F7.9°C 40.5°F4.7°C 80% 2.3 mph WSW3.7 kmh WSW 3.5 mph5.6 kmh 29.66 in1004.4 mb - 0.00 in0.0 mm 0.00 in0.0 mm
05:30 AM 46.3°F7.9°C 40.5°F4.7°C 80% 2.3 mph W3.7 kmh W 4.6 mph7.4 kmh 29.66 in1004.4 mb - 0.00 in0.0 mm 0.00 in0.0 mm
05:35 AM 46.2°F7.9°C 40.4°F4.7°C 80% 4.6 mph WNW7.4 kmh WNW 5.8 mph9.3 kmh 29.66 in1004.4 mb - 0.00 in0.0 mm 0.00 in0.0 mm
05:40 AM 46.3°F7.9°C 40.5°F4.7°C 80% 3.5 mph WSW5.6 kmh WSW 3.5 mph5.6 kmh 29.66 in1004.4 mb - 0.00 in0.0 mm 0.00 in0.0 mm
05:45 AM 46.4°F8.0°C 40.2°F4.6°C 79% 4.6 mph WSW7.4 kmh WSW 10.4 mph16.7 kmh 29.67 in1004.7 mb - 0.00 in0.0 mm 0.00 in0.0 mm
05:50 AM 46.4°F8.0°C 40.6°F4.8°C 80% 3.5 mph W5.6 kmh W 4.6 mph7.4 kmh 29.67 in1004.7 mb - 0.00 in0.0 mm 0.00 in0.0 mm
05:55 AM 46.4°F8.0°C 40.6°F4.8°C 80% 3.5 mph WSW5.6 kmh WSW 6.9 mph11.1 kmh 29.67 in1004.7 mb - 0.00 in0.0 mm 0.00 in0.0 mm
06:00 AM 46.2°F7.9°C 40.4°F4.7°C 80% 4.6 mph WSW7.4 kmh WSW 8.1 mph13.0 kmh 29.67 in1004.7 mb - 0.00 in0.0 mm 0.00 in0.0 mm
06:05 AM 46.1°F7.8°C 39.9°F4.4°C 79% 3.5 mph WSW5.6 kmh WSW 6.9 mph11.1 kmh 29.67 in1004.7 mb - 0.00 in0.0 mm 0.00 in0.0 mm
06:10 AM 45.9°F7.7°C 39.8°F4.3°C 79% 2.3 mph WSW3.7 kmh WSW 6.9 mph11.1 kmh 29.67 in1004.7 mb - 0.00 in0.0 mm 0.00 in0.0 mm
06:15 AM 45.8°F7.7°C 39.7°F4.3°C 79% 2.3 mph WSW3.7 kmh WSW 4.6 mph7.4 kmh 29.67 in1004.7 mb - 0.00 in0.0 mm 0.00 in0.0 mm
06:20 AM 45.7°F7.6°C 39.6°F4.2°C 79% 2.3 mph WSW3.7 kmh WSW 3.5 mph5.6 kmh 29.68 in1005.1 mb - 0.00 in0.0 mm 0.00 in0.0 mm
06:25 AM 45.6°F7.6°C 39.5°F4.2°C 79% 2.3 mph W3.7 kmh W 3.5 mph5.6 kmh 29.68 in1005.1 mb - 0.00 in0.0 mm 0.00 in0.0 mm
06:30 AM 45.5°F7.5°C 39.4°F4.1°C 79% Calm Calm 1.2 mph1.9 kmh 29.68 in1005.1 mb - 0.00 in0.0 mm 0.00 in0.0 mm
06:35 AM 45.5°F7.5°C 39.4°F4.1°C 79% Calm Calm -- 29.68 in1005.1 mb - 0.00 in0.0 mm 0.00 in0.0 mm
06:40 AM 45.4°F7.4°C 39.3°F4.1°C 79% Calm Calm -- 29.68 in1005.1 mb - 0.00 in0.0 mm 0.00 in0.0 mm
06:45 AM 45.4°F7.4°C 39.3°F4.1°C 79% Calm Calm -- 29.68 in1005.1 mb - 0.00 in0.0 mm 0.00 in0.0 mm
06:50 AM 45.3°F7.4°C 39.2°F4.0°C 79% Calm Calm -- 29.68 in1005.1 mb - 0.00 in0.0 mm 0.00 in0.0 mm
06:55 AM 45.3°F7.4°C 39.2°F4.0°C 79% 2.3 mph SSW3.7 kmh SSW 2.3 mph3.7 kmh 29.68 in1005.1 mb - 0.00 in0.0 mm 0.00 in0.0 mm
07:00 AM 45.1°F7.3°C 39.0°F3.9°C 79% Calm Calm -- 29.68 in1005.1 mb - 0.00 in0.0 mm 0.00 in0.0 mm
07:05 AM 45.0°F7.2°C 38.9°F3.8°C 79% Calm Calm -- 29.68 in1005.1 mb - 0.00 in0.0 mm 0.00 in0.0 mm
07:10 AM 44.8°F7.1°C 38.7°F3.7°C 79% Calm Calm 2.3 mph3.7 kmh 29.69 in1005.4 mb - 0.00 in0.0 mm 0.00 in0.0 mm
07:15 AM 44.8°F7.1°C 38.7°F3.7°C 79% 2.3 mph SSW3.7 kmh SSW 2.3 mph3.7 kmh 29.70 in1005.8 mb - 0.00 in0.0 mm 0.00 in0.0 mm
07:20 AM 44.8°F7.1°C 38.7°F3.7°C 79% Calm Calm -- 29.70 in1005.8 mb - 0.00 in0.0 mm 0.00 in0.0 mm
07:25 AM 44.7°F7.1°C 38.6°F3.7°C 79% Calm Calm -- 29.71 in1006.1 mb - 0.00 in0.0 mm 0.00 in0.0 mm
07:30 AM 44.7°F7.1°C 38.6°F3.7°C 79% Calm Calm -- 29.70 in1005.8 mb - 0.00 in0.0 mm 0.00 in0.0 mm
07:35 AM 44.7°F7.1°C 38.6°F3.7°C 79% Calm Calm -- 29.70 in1005.8 mb - 0.00 in0.0 mm 0.00 in0.0 mm
07:40 AM 44.6°F7.0°C 38.2°F3.4°C 78% Calm Calm -- 29.71 in1006.1 mb - 0.00 in0.0 mm 0.00 in0.0 mm
07:45 AM 44.6°F7.0°C 38.2°F3.4°C 78% Calm Calm -- 29.71 in1006.1 mb - 0.00 in0.0 mm 0.00 in0.0 mm
07:50 AM 44.6°F7.0°C 38.2°F3.4°C 78% Calm Calm -- 29.71 in1006.1 mb - 0.00 in0.0 mm 0.00 in0.0 mm
07:55 AM 44.6°F7.0°C 38.2°F3.4°C 78% Calm Calm -- 29.71 in1006.1 mb - 0.00 in0.0 mm 0.00 in0.0 mm
08:00 AM 44.7°F7.1°C 38.3°F3.5°C 78% 1.2 mph SSW1.9 kmh SSW 3.5 mph5.6 kmh 29.71 in1006.1 mb - 0.00 in0.0 mm 0.00 in0.0 mm
08:05 AM 44.8°F7.1°C 38.4°F3.6°C 78% 2.3 mph S3.7 kmh S 3.5 mph5.6 kmh 29.72 in1006.4 mb - 0.00 in0.0 mm 0.00 in0.0 mm
08:10 AM 44.8°F7.1°C 38.4°F3.6°C 78% 2.3 mph SSE3.7 kmh SSE 3.5 mph5.6 kmh 29.72 in1006.4 mb - 0.00 in0.0 mm 0.00 in0.0 mm
08:15 AM 44.9°F7.2°C 38.5°F3.6°C 78% 1.2 mph SSE1.9 kmh SSE 3.5 mph5.6 kmh 29.72 in1006.4 mb - 0.00 in0.0 mm 0.00 in0.0 mm
08:20 AM 45.1°F7.3°C 38.6°F3.7°C 78% 2.3 mph SSE3.7 kmh SSE 3.5 mph5.6 kmh 29.73 in1006.8 mb - 0.00 in0.0 mm 0.00 in0.0 mm
08:25 AM 45.2°F7.3°C 38.8°F3.8°C 78% 1.2 mph SSE1.9 kmh SSE 2.3 mph3.7 kmh 29.73 in1006.8 mb - 0.00 in0.0 mm 0.00 in0.0 mm
08:30 AM 45.5°F7.5°C 39.0°F3.9°C 78% Calm Calm -- 29.73 in1006.8 mb - 0.00 in0.0 mm 0.00 in0.0 mm
08:35 AM 45.6°F7.6°C 39.1°F3.9°C 78% Calm Calm -- 29.73 in1006.8 mb - 0.00 in0.0 mm 0.00 in0.0 mm
08:40 AM 45.6°F7.6°C 39.1°F3.9°C 78% Calm Calm -- 29.73 in1006.8 mb - 0.00 in0.0 mm 0.00 in0.0 mm
08:45 AM 45.7°F7.6°C 39.2°F4.0°C 78% Calm Calm -- 29.73 in1006.8 mb - 0.00 in0.0 mm 0.00 in0.0 mm
08:50 AM 45.8°F7.7°C 39.3°F4.1°C 78% Calm Calm -- 29.73 in1006.8 mb - 0.00 in0.0 mm 0.00 in0.0 mm
08:55 AM 45.9°F7.7°C 39.4°F4.1°C 78% Calm Calm -- 29.73 in1006.8 mb - 0.00 in0.0 mm 0.00 in0.0 mm
09:00 AM 46.0°F7.8°C 39.5°F4.2°C 78% 1.2 mph NE1.9 kmh NE 1.2 mph1.9 kmh 29.73 in1006.8 mb - 0.00 in0.0 mm 0.00 in0.0 mm
09:05 AM 46.1°F7.8°C 39.6°F4.2°C 78% 2.3 mph NW3.7 kmh NW 3.5 mph5.6 kmh 29.73 in1006.8 mb - 0.00 in0.0 mm 0.00 in0.0 mm
09:10 AM 46.2°F7.9°C 39.7°F4.3°C 78% 1.2 mph N1.9 kmh N 2.3 mph3.7 kmh 29.73 in1006.8 mb - 0.00 in0.0 mm 0.00 in0.0 mm
09:15 AM 46.4°F8.0°C 39.9°F4.4°C 78% Calm Calm -- 29.73 in1006.8 mb - 0.00 in0.0 mm 0.00 in0.0 mm
09:20 AM 46.5°F8.1°C 40.0°F4.4°C 78% 1.2 mph NW1.9 kmh NW 2.3 mph3.7 kmh 29.74 in1007.1 mb - 0.00 in0.0 mm 0.00 in0.0 mm
09:25 AM 46.7°F8.2°C 40.2°F4.6°C 78% 2.3 mph NE3.7 kmh NE 3.5 mph5.6 kmh 29.73 in1006.8 mb - 0.00 in0.0 mm 0.00 in0.0 mm
09:30 AM 46.9°F8.3°C 40.4°F4.7°C 78% 2.3 mph NNE3.7 kmh NNE 3.5 mph5.6 kmh 29.74 in1007.1 mb - 0.00 in0.0 mm 0.00 in0.0 mm
09:35 AM 47.1°F8.4°C 40.6°F4.8°C 78% 2.3 mph NE3.7 kmh NE 3.5 mph5.6 kmh 29.74 in1007.1 mb - 0.00 in0.0 mm 0.00 in0.0 mm
09:40 AM 47.2°F8.4°C 41.0°F5.0°C 79% 2.3 mph NE3.7 kmh NE 3.5 mph5.6 kmh 29.73 in1006.8 mb - 0.00 in0.0 mm 0.00 in0.0 mm
09:45 AM 47.3°F8.5°C 41.1°F5.1°C 79% 1.2 mph NE1.9 kmh NE 2.3 mph3.7 kmh 29.73 in1006.8 mb - 0.00 in0.0 mm 0.00 in0.0 mm
09:50 AM 47.4°F8.6°C 41.2°F5.1°C 79% Calm Calm -- 29.74 in1007.1 mb - 0.00 in0.0 mm 0.00 in0.0 mm
09:55 AM 47.6°F8.7°C 41.4°F5.2°C 79% Calm Calm -- 29.75 in1007.5 mb - 0.00 in0.0 mm 0.00 in0.0 mm
10:00 AM 47.8°F8.8°C 41.3°F5.2°C 78% Calm Calm -- 29.75 in1007.5 mb - 0.00 in0.0 mm 0.00 in0.0 mm
10:05 AM 47.9°F8.8°C 41.7°F5.4°C 79% 2.3 mph W3.7 kmh W 2.3 mph3.7 kmh 29.75 in1007.5 mb - 0.00 in0.0 mm 0.00 in0.0 mm
10:10 AM 48.2°F9.0°C 41.6°F5.3°C 78% 2.3 mph W3.7 kmh W 2.3 mph3.7 kmh 29.75 in1007.5 mb - 0.00 in0.0 mm 0.00 in0.0 mm
10:15 AM 48.3°F9.1°C 41.8°F5.4°C 78% Calm Calm 2.3 mph3.7 kmh 29.74 in1007.1 mb - 0.00 in0.0 mm 0.00 in0.0 mm
10:20 AM 48.4°F9.1°C 41.9°F5.5°C 78% 2.3 mph W3.7 kmh W 3.5 mph5.6 kmh 29.74 in1007.1 mb - 0.00 in0.0 mm 0.00 in0.0 mm
10:25 AM 48.3°F9.1°C 41.8°F5.4°C 78% 2.3 mph W3.7 kmh W 3.5 mph5.6 kmh 29.74 in1007.1 mb - 0.00 in0.0 mm 0.00 in0.0 mm
10:30 AM 48.3°F9.1°C 41.8°F5.4°C 78% 1.2 mph W1.9 kmh W 2.3 mph3.7 kmh 29.74 in1007.1 mb - 0.00 in0.0 mm 0.00 in0.0 mm
10:35 AM 48.4°F9.1°C 41.9°F5.5°C 78% 2.3 mph W3.7 kmh W 2.3 mph3.7 kmh 29.74 in1007.1 mb - 0.00 in0.0 mm 0.00 in0.0 mm
10:40 AM 48.4°F9.1°C 41.8°F5.4°C 78% 1.2 mph W1.9 kmh W 3.5 mph5.6 kmh 29.74 in1007.1 mb - 0.00 in0.0 mm 0.00 in0.0 mm
10:45 AM 48.4°F9.1°C 41.9°F5.5°C 78% 2.3 mph WSW3.7 kmh WSW 3.5 mph5.6 kmh 29.75 in1007.5 mb - 0.00 in0.0 mm 0.00 in0.0 mm
10:50 AM 48.6°F9.2°C 42.0°F5.6°C 78% 1.2 mph WSW1.9 kmh WSW 2.3 mph3.7 kmh 29.74 in1007.1 mb - 0.00 in0.0 mm 0.00 in0.0 mm
10:55 AM 48.8°F9.3°C 42.2°F5.7°C 78% 2.3 mph WSW3.7 kmh WSW 2.3 mph3.7 kmh 29.74 in1007.1 mb - 0.00 in0.0 mm 0.00 in0.0 mm
11:00 AM 49.0°F9.4°C 42.4°F5.8°C 78% 1.2 mph WSW1.9 kmh WSW 1.2 mph1.9 kmh 29.74 in1007.1 mb - 0.00 in0.0 mm 0.00 in0.0 mm
11:05 AM 49.1°F9.5°C 42.5°F5.8°C 78% Calm Calm -- 29.75 in1007.5 mb - 0.00 in0.0 mm 0.00 in0.0 mm
11:10 AM 49.4°F9.7°C 42.8°F6.0°C 78% Calm Calm -- 29.75 in1007.5 mb - 0.00 in0.0 mm 0.00 in0.0 mm
11:15 AM 49.5°F9.7°C 42.9°F6.1°C 78% Calm Calm -- 29.75 in1007.5 mb - 0.00 in0.0 mm 0.00 in0.0 mm
11:20 AM 49.6°F9.8°C 43.0°F6.1°C 78% Calm Calm -- 29.75 in1007.5 mb - 0.00 in0.0 mm 0.00 in0.0 mm
11:25 AM 49.6°F9.8°C 43.4°F6.3°C 79% Calm Calm 1.2 mph1.9 kmh 29.75 in1007.5 mb - 0.00 in0.0 mm 0.00 in0.0 mm
11:30 AM 49.7°F9.8°C 43.4°F6.3°C 79% 1.2 mph SSW1.9 kmh SSW 3.5 mph5.6 kmh 29.75 in1007.5 mb - 0.00 in0.0 mm 0.00 in0.0 mm
11:35 AM 50.0°F10.0°C 43.8°F6.6°C 79% Calm Calm 3.5 mph5.6 kmh 29.75 in1007.5 mb - 0.00 in0.0 mm 0.00 in0.0 mm
11:40 AM 50.3°F10.2°C 43.7°F6.5°C 78% 1.2 mph SW1.9 kmh SW 3.5 mph5.6 kmh 29.75 in1007.5 mb - 0.00 in0.0 mm 0.00 in0.0 mm
11:45 AM 50.6°F10.3°C 44.3°F6.8°C 79% Calm Calm 2.3 mph3.7 kmh 29.75 in1007.5 mb - 0.00 in0.0 mm 0.00 in0.0 mm
11:50 AM 50.9°F10.5°C 44.6°F7.0°C 79% 2.3 mph SW3.7 kmh SW 3.5 mph5.6 kmh 29.75 in1007.5 mb - 0.00 in0.0 mm 0.00 in0.0 mm
11:55 AM 50.9°F10.5°C 44.6°F7.0°C 79% 2.3 mph SW3.7 kmh SW 3.5 mph5.6 kmh 29.75 in1007.5 mb - 0.00 in0.0 mm 0.00 in0.0 mm
12:00 PM 51.1°F10.6°C 44.8°F7.1°C 79% 2.3 mph WSW3.7 kmh WSW 4.6 mph7.4 kmh 29.75 in1007.5 mb - 0.00 in0.0 mm 0.00 in0.0 mm
12:05 PM 51.6°F10.9°C 45.3°F7.4°C 79% 3.5 mph W5.6 kmh W 6.9 mph11.1 kmh 29.75 in1007.5 mb - 0.00 in0.0 mm 0.00 in0.0 mm
12:10 PM 51.9°F11.1°C 45.3°F7.4°C 78% 2.3 mph W3.7 kmh W 3.5 mph5.6 kmh 29.75 in1007.5 mb - 0.00 in0.0 mm 0.00 in0.0 mm
12:15 PM 52.3°F11.3°C 45.7°F7.6°C 78% 2.3 mph WSW3.7 kmh WSW 8.1 mph13.0 kmh 29.75 in1007.5 mb - 0.00 in0.0 mm 0.00 in0.0 mm
12:20 PM 52.9°F11.6°C 46.3°F7.9°C 78% 3.5 mph WSW5.6 kmh WSW 4.6 mph7.4 kmh 29.75 in1007.5 mb - 0.00 in0.0 mm 0.00 in0.0 mm
12:25 PM 53.7°F12.1°C 46.4°F8.0°C 76% 3.5 mph WSW5.6 kmh WSW 6.9 mph11.1 kmh 29.76 in1007.8 mb - 0.00 in0.0 mm 0.00 in0.0 mm
12:30 PM 54.6°F12.6°C 47.5°F8.6°C 77% 5.8 mph WSW9.3 kmh WSW 8.1 mph13.0 kmh 29.76 in1007.8 mb - 0.00 in0.0 mm 0.00 in0.0 mm
12:35 PM 55.3°F12.9°C 47.2°F8.4°C 74% 2.3 mph WSW3.7 kmh WSW 5.8 mph9.3 kmh 29.76 in1007.8 mb - 0.00 in0.0 mm 0.00 in0.0 mm
12:40 PM 55.3°F12.9°C 46.8°F8.2°C 73% 2.3 mph WSW3.7 kmh WSW 3.5 mph5.6 kmh 29.76 in1007.8 mb - 0.00 in0.0 mm 0.00 in0.0 mm
12:45 PM 55.4°F13.0°C 46.5°F8.1°C 72% 2.3 mph WSW3.7 kmh WSW 3.5 mph5.6 kmh 29.76 in1007.8 mb - 0.00 in0.0 mm 0.00 in0.0 mm
12:50 PM 55.6°F13.1°C 46.3°F7.9°C 71% 3.5 mph WSW5.6 kmh WSW 8.1 mph13.0 kmh 29.76 in1007.8 mb - 0.00 in0.0 mm 0.00 in0.0 mm
12:55 PM 56.0°F13.3°C 46.0°F7.8°C 69% 4.6 mph WSW7.4 kmh WSW 6.9 mph11.1 kmh 29.76 in1007.8 mb - 0.00 in0.0 mm 0.00 in0.0 mm
01:00 PM 56.1°F13.4°C 45.3°F7.4°C 67% 2.3 mph WSW3.7 kmh WSW 3.5 mph5.6 kmh 29.76 in1007.8 mb - 0.00 in0.0 mm 0.00 in0.0 mm
01:05 PM 56.3°F13.5°C 45.5°F7.5°C 67% 3.5 mph W5.6 kmh W 5.8 mph9.3 kmh 29.76 in1007.8 mb - 0.00 in0.0 mm 0.00 in0.0 mm
01:10 PM 56.4°F13.6°C 46.0°F7.8°C 68% 3.5 mph SSW5.6 kmh SSW 5.8 mph9.3 kmh 29.76 in1007.8 mb - 0.00 in0.0 mm 0.00 in0.0 mm
01:15 PM 56.2°F13.4°C 45.4°F7.4°C 67% 2.3 mph SW3.7 kmh SW 9.2 mph14.8 kmh 29.75 in1007.5 mb - 0.00 in0.0 mm 0.00 in0.0 mm
01:20 PM 56.1°F13.4°C 44.9°F7.2°C 66% 3.5 mph SSW5.6 kmh SSW 4.6 mph7.4 kmh 29.75 in1007.5 mb - 0.00 in0.0 mm 0.00 in0.0 mm
01:25 PM 56.0°F13.3°C 45.2°F7.3°C 67% 2.3 mph SW3.7 kmh SW 4.6 mph7.4 kmh 29.75 in1007.5 mb - 0.00 in0.0 mm 0.00 in0.0 mm
01:30 PM 56.4°F13.6°C 45.5°F7.5°C 67% 1.2 mph SW1.9 kmh SW 5.8 mph9.3 kmh 29.75 in1007.5 mb - 0.00 in0.0 mm 0.00 in0.0 mm
01:35 PM 56.9°F13.8°C 45.7°F7.6°C 66% 1.2 mph WSW1.9 kmh WSW 3.5 mph5.6 kmh 29.76 in1007.8 mb - 0.00 in0.0 mm 0.00 in0.0 mm
01:40 PM 57.0°F13.9°C 44.5°F6.9°C 63% 1.2 mph WSW1.9 kmh WSW 3.5 mph5.6 kmh 29.76 in1007.8 mb - 0.00 in0.0 mm 0.00 in0.0 mm
01:45 PM 57.0°F13.9°C 45.4°F7.4°C 65% 2.3 mph WSW3.7 kmh WSW 3.5 mph5.6 kmh 29.76 in1007.8 mb - 0.00 in0.0 mm 0.00 in0.0 mm
01:50 PM 57.2°F14.0°C 45.1°F7.3°C 64% 4.6 mph SW7.4 kmh SW 6.9 mph11.1 kmh 29.76 in1007.8 mb - 0.00 in0.0 mm 0.00 in0.0 mm
01:55 PM 57.2°F14.0°C 44.3°F6.8°C 62% 2.3 mph WSW3.7 kmh WSW 3.5 mph5.6 kmh 29.76 in1007.8 mb - 0.00 in0.0 mm 0.00 in0.0 mm
02:00 PM 57.4°F14.1°C 44.5°F6.9°C 62% 3.5 mph SW5.6 kmh SW 3.5 mph5.6 kmh 29.75 in1007.5 mb - 0.00 in0.0 mm 0.00 in0.0 mm
02:05 PM 57.0°F13.9°C 43.2°F6.2°C 60% 2.3 mph SW3.7 kmh SW 3.5 mph5.6 kmh 29.75 in1007.5 mb - 0.00 in0.0 mm 0.00 in0.0 mm
02:10 PM 56.8°F13.8°C 44.3°F6.8°C 63% 1.2 mph SW1.9 kmh SW 3.5 mph5.6 kmh 29.75 in1007.5 mb - 0.00 in0.0 mm 0.00 in0.0 mm
02:15 PM 56.6°F13.7°C 44.1°F6.7°C 63% 1.2 mph SW1.9 kmh SW 2.3 mph3.7 kmh 29.75 in1007.5 mb - 0.00 in0.0 mm 0.00 in0.0 mm
02:20 PM 56.4°F13.6°C 43.1°F6.2°C 61% 2.3 mph W3.7 kmh W 3.5 mph5.6 kmh 29.75 in1007.5 mb - 0.00 in0.0 mm 0.00 in0.0 mm
02:25 PM 56.2°F13.4°C 42.5°F5.8°C 60% 2.3 mph WSW3.7 kmh WSW 3.5 mph5.6 kmh 29.75 in1007.5 mb - 0.00 in0.0 mm 0.00 in0.0 mm
02:30 PM 56.1°F13.4°C 42.0°F5.6°C 59% 1.2 mph WSW1.9 kmh WSW 2.3 mph3.7 kmh 29.75 in1007.5 mb - 0.00 in0.0 mm 0.00 in0.0 mm
02:35 PM 56.0°F13.3°C 43.1°F6.2°C 62% 2.3 mph SW3.7 kmh SW 3.5 mph5.6 kmh 29.75 in1007.5 mb - 0.00 in0.0 mm 0.00 in0.0 mm
02:40 PM 55.5°F13.1°C 43.1°F6.2°C 63% 2.3 mph SW3.7 kmh SW 5.8 mph9.3 kmh 29.75 in1007.5 mb - 0.00 in0.0 mm 0.00 in0.0 mm
02:45 PM 55.1°F12.8°C 43.5°F6.4°C 65% 3.5 mph SW5.6 kmh SW 4.6 mph7.4 kmh 29.75 in1007.5 mb - 0.00 in0.0 mm 0.00 in0.0 mm
02:50 PM 54.9°F12.7°C 43.7°F6.5°C 66% 2.3 mph SSW3.7 kmh SSW 6.9 mph11.1 kmh 29.75 in1007.5 mb - 0.00 in0.0 mm 0.00 in0.0 mm
02:55 PM 54.6°F12.6°C 43.1°F6.2°C 65% 2.3 mph SW3.7 kmh SW 3.5 mph5.6 kmh 29.75 in1007.5 mb - 0.00 in0.0 mm 0.00 in0.0 mm
03:00 PM 54.5°F12.5°C 43.4°F6.3°C 66% 3.5 mph SW5.6 kmh SW 3.5 mph5.6 kmh 29.76 in1007.8 mb - 0.00 in0.0 mm 0.00 in0.0 mm
03:05 PM 54.5°F12.5°C 43.4°F6.3°C 66% 3.5 mph S5.6 kmh S 3.5 mph5.6 kmh 29.76 in1007.8 mb - 0.00 in0.0 mm 0.00 in0.0 mm
03:10 PM 54.5°F12.5°C 43.4°F6.3°C 66% 1.2 mph SW1.9 kmh SW 3.5 mph5.6 kmh 29.76 in1007.8 mb - 0.00 in0.0 mm 0.00 in0.0 mm
03:15 PM 54.4°F12.4°C 43.3°F6.3°C 66% 1.2 mph SSW1.9 kmh SSW 3.5 mph5.6 kmh 29.76 in1007.8 mb - 0.00 in0.0 mm 0.00 in0.0 mm
03:20 PM 54.3°F12.4°C 42.8°F6.0°C 65% 1.2 mph SW1.9 kmh SW 3.5 mph5.6 kmh 29.76 in1007.8 mb - 0.00 in0.0 mm 0.00 in0.0 mm
03:25 PM 54.2°F12.3°C 43.1°F6.2°C 66% 2.3 mph S3.7 kmh S 5.8 mph9.3 kmh 29.76 in1007.8 mb - 0.00 in0.0 mm 0.00 in0.0 mm
03:30 PM 54.1°F12.3°C 43.8°F6.6°C 68% 2.3 mph S3.7 kmh S 3.5 mph5.6 kmh 29.76 in1007.8 mb - 0.00 in0.0 mm 0.00 in0.0 mm
03:35 PM 53.9°F12.2°C 44.0°F6.7°C 69% 2.3 mph S3.7 kmh S 3.5 mph5.6 kmh 29.76 in1007.8 mb - 0.00 in0.0 mm 0.00 in0.0 mm
03:40 PM 53.7°F12.1°C 43.8°F6.6°C 69% 2.3 mph SW3.7 kmh SW 3.5 mph5.6 kmh 29.76 in1007.8 mb - 0.00 in0.0 mm 0.00 in0.0 mm
03:45 PM 53.6°F12.0°C 44.4°F6.9°C 71% 1.2 mph SW1.9 kmh SW 3.5 mph5.6 kmh 29.76 in1007.8 mb - 0.00 in0.0 mm 0.00 in0.0 mm
03:50 PM 53.5°F11.9°C 44.0°F6.7°C 70% 1.2 mph SW1.9 kmh SW 2.3 mph3.7 kmh 29.76 in1007.8 mb - 0.00 in0.0 mm 0.00 in0.0 mm
03:55 PM 53.5°F11.9°C 43.9°F6.6°C 70% 2.3 mph SW3.7 kmh SW 2.3 mph3.7 kmh 29.76 in1007.8 mb - 0.00 in0.0 mm 0.00 in0.0 mm
04:00 PM 53.3°F11.8°C 43.0°F6.1°C 68% 2.3 mph SW3.7 kmh SW 3.5 mph5.6 kmh 29.76 in1007.8 mb - 0.00 in0.0 mm 0.00 in0.0 mm
04:05 PM 53.3°F11.8°C 43.4°F6.3°C 69% 1.2 mph SW1.9 kmh SW 2.3 mph3.7 kmh 29.77 in1008.1 mb - 0.00 in0.0 mm 0.00 in0.0 mm
04:10 PM 53.2°F11.8°C 43.7°F6.5°C 70% 1.2 mph SW1.9 kmh SW 1.2 mph1.9 kmh 29.77 in1008.1 mb - 0.00 in0.0 mm 0.00 in0.0 mm
04:15 PM 53.0°F11.7°C 43.5°F6.4°C 70% Calm Calm -- 29.77 in1008.1 mb - 0.00 in0.0 mm 0.00 in0.0 mm
04:20 PM 52.9°F11.6°C 43.7°F6.5°C 71% Calm Calm 1.2 mph1.9 kmh 29.77 in1008.1 mb - 0.00 in0.0 mm 0.00 in0.0 mm
04:25 PM 52.7°F11.5°C 43.9°F6.6°C 72% Calm Calm -- 29.77 in1008.1 mb - 0.00 in0.0 mm 0.00 in0.0 mm
04:30 PM 52.4°F11.3°C 44.0°F6.7°C 73% Calm Calm -- 29.77 in1008.1 mb - 0.00 in0.0 mm 0.00 in0.0 mm
04:35 PM 52.0°F11.1°C 43.6°F6.4°C 73% Calm Calm -- 29.77 in1008.1 mb - 0.00 in0.0 mm 0.00 in0.0 mm
04:40 PM 51.4°F10.8°C 43.1°F6.2°C 73% 2.3 mph NNE3.7 kmh NNE 3.5 mph5.6 kmh 29.78 in1008.5 mb - 0.00 in0.0 mm 0.00 in0.0 mm
04:45 PM 50.9°F10.5°C 42.9°F6.1°C 74% 2.3 mph NNE3.7 kmh NNE 3.5 mph5.6 kmh 29.78 in1008.5 mb - 0.00 in0.0 mm 0.00 in0.0 mm
04:50 PM 50.4°F10.2°C 42.8°F6.0°C 75% 2.3 mph NNE3.7 kmh NNE 3.5 mph5.6 kmh 29.78 in1008.5 mb - 0.00 in0.0 mm 0.00 in0.0 mm
04:55 PM 50.0°F10.0°C 42.7°F5.9°C 76% 2.3 mph NNE3.7 kmh NNE 3.5 mph5.6 kmh 29.78 in1008.5 mb - 0.00 in0.0 mm 0.00 in0.0 mm
05:00 PM 49.8°F9.9°C 42.5°F5.8°C 76% 2.3 mph NNE3.7 kmh NNE 3.5 mph5.6 kmh 29.79 in1008.8 mb - 0.00 in0.0 mm 0.00 in0.0 mm
05:05 PM 49.6°F9.8°C 42.7°F5.9°C 77% 2.3 mph N3.7 kmh N 3.5 mph5.6 kmh 29.79 in1008.8 mb - 0.00 in0.0 mm 0.00 in0.0 mm
05:10 PM 49.6°F9.8°C 42.6°F5.9°C 77% 2.3 mph N3.7 kmh N 3.5 mph5.6 kmh 29.79 in1008.8 mb - 0.00 in0.0 mm 0.00 in0.0 mm
05:15 PM 49.6°F9.8°C 42.7°F5.9°C 77% 2.3 mph N3.7 kmh N 3.5 mph5.6 kmh 29.80 in1009.1 mb - 0.00 in0.0 mm 0.00 in0.0 mm
05:20 PM 49.6°F9.8°C 42.7°F5.9°C 77% 1.2 mph N1.9 kmh N 2.3 mph3.7 kmh 29.80 in1009.1 mb - 0.00 in0.0 mm 0.00 in0.0 mm
05:25 PM 49.5°F9.7°C 42.6°F5.9°C 77% Calm Calm 1.2 mph1.9 kmh 29.80 in1009.1 mb - 0.00 in0.0 mm 0.00 in0.0 mm
05:30 PM 49.2°F9.6°C 42.7°F5.9°C 78% Calm Calm 1.2 mph1.9 kmh 29.80 in1009.1 mb - 0.00 in0.0 mm 0.00 in0.0 mm
05:35 PM 48.9°F9.4°C 42.4°F5.8°C 78% 1.2 mph N1.9 kmh N 1.2 mph1.9 kmh 29.80 in1009.1 mb - 0.00 in0.0 mm 0.00 in0.0 mm
05:40 PM 48.6°F9.2°C 42.1°F5.6°C 78% 1.2 mph N1.9 kmh N 3.5 mph5.6 kmh 29.81 in1009.5 mb - 0.00 in0.0 mm 0.00 in0.0 mm
05:45 PM 48.3°F9.1°C 41.4°F5.2°C 77% 2.3 mph N3.7 kmh N 3.5 mph5.6 kmh 29.81 in1009.5 mb - 0.00 in0.0 mm 0.00 in0.0 mm
05:50 PM 48.0°F8.9°C 41.5°F5.3°C 78% 1.2 mph N1.9 kmh N 2.3 mph3.7 kmh 29.81 in1009.5 mb - 0.00 in0.0 mm 0.00 in0.0 mm
05:55 PM 47.6°F8.7°C 41.1°F5.1°C 78% 1.2 mph N1.9 kmh N 3.5 mph5.6 kmh 29.82 in1009.8 mb - 0.00 in0.0 mm 0.00 in0.0 mm
06:00 PM 47.2°F8.4°C 40.7°F4.8°C 78% 2.3 mph N3.7 kmh N 3.5 mph5.6 kmh 29.82 in1009.8 mb - 0.00 in0.0 mm 0.00 in0.0 mm
06:05 PM 46.8°F8.2°C 40.3°F4.6°C 78% 2.3 mph N3.7 kmh N 3.5 mph5.6 kmh 29.82 in1009.8 mb - 0.00 in0.0 mm 0.00 in0.0 mm
06:10 PM 46.4°F8.0°C 40.3°F4.6°C 79% 2.3 mph N3.7 kmh N 3.5 mph5.6 kmh 29.82 in1009.8 mb - 0.00 in0.0 mm 0.00 in0.0 mm
06:15 PM 46.0°F7.8°C 39.9°F4.4°C 79% 2.3 mph N3.7 kmh N 2.3 mph3.7 kmh 29.82 in1009.8 mb - 0.00 in0.0 mm 0.00 in0.0 mm
06:20 PM 45.6°F7.6°C 39.5°F4.2°C 79% 1.2 mph N1.9 kmh N 3.5 mph5.6 kmh 29.82 in1009.8 mb - 0.00 in0.0 mm 0.00 in0.0 mm
06:25 PM 45.4°F7.4°C 39.3°F4.1°C 79% 1.2 mph N1.9 kmh N 2.3 mph3.7 kmh 29.82 in1009.8 mb - 0.00 in0.0 mm 0.00 in0.0 mm
06:30 PM 45.1°F7.3°C 39.0°F3.9°C 79% 1.2 mph N1.9 kmh N 2.3 mph3.7 kmh 29.82 in1009.8 mb - 0.00 in0.0 mm 0.00 in0.0 mm
06:35 PM 44.8°F7.1°C 38.6°F3.7°C 79% 1.2 mph N1.9 kmh N 1.2 mph1.9 kmh 29.82 in1009.8 mb - 0.00 in0.0 mm 0.00 in0.0 mm
06:40 PM 44.5°F6.9°C 38.4°F3.6°C 79% Calm Calm -- 29.82 in1009.8 mb - 0.00 in0.0 mm 0.00 in0.0 mm
06:45 PM 44.4°F6.9°C 38.3°F3.5°C 79% Calm Calm -- 29.82 in1009.8 mb - 0.00 in0.0 mm 0.00 in0.0 mm
06:50 PM 44.3°F6.8°C 38.2°F3.4°C 79% 1.2 mph N1.9 kmh N 3.5 mph5.6 kmh 29.82 in1009.8 mb - 0.00 in0.0 mm 0.00 in0.0 mm
06:55 PM 44.2°F6.8°C 38.1°F3.4°C 79% 3.5 mph N5.6 kmh N 3.5 mph5.6 kmh 29.82 in1009.8 mb - 0.00 in0.0 mm 0.00 in0.0 mm
07:00 PM 44.2°F6.8°C 38.1°F3.4°C 79% 3.5 mph NNE5.6 kmh NNE 3.5 mph5.6 kmh 29.83 in1010.2 mb - 0.00 in0.0 mm 0.00 in0.0 mm
07:05 PM 44.2°F6.8°C 38.1°F3.4°C 79% 3.5 mph NNE5.6 kmh NNE 3.5 mph5.6 kmh 29.83 in1010.2 mb - 0.00 in0.0 mm 0.00 in0.0 mm
07:10 PM 44.1°F6.7°C 38.0°F3.3°C 79% 1.2 mph N1.9 kmh N 2.3 mph3.7 kmh 29.83 in1010.2 mb - 0.00 in0.0 mm 0.00 in0.0 mm
07:15 PM 44.0°F6.7°C 37.9°F3.3°C 79% 2.3 mph N3.7 kmh N 3.5 mph5.6 kmh 29.83 in1010.2 mb - 0.00 in0.0 mm 0.00 in0.0 mm
07:20 PM 43.7°F6.5°C 37.6°F3.1°C 79% 1.2 mph N1.9 kmh N 2.3 mph3.7 kmh 29.83 in1010.2 mb - 0.00 in0.0 mm 0.00 in0.0 mm
07:25 PM 43.4°F6.3°C 37.3°F2.9°C 79% Calm Calm -- 29.83 in1010.2 mb - 0.00 in0.0 mm 0.00 in0.0 mm
07:30 PM 43.1°F6.2°C 37.0°F2.8°C 79% Calm Calm -- 29.83 in1010.2 mb - 0.00 in0.0 mm 0.00 in0.0 mm
07:35 PM 42.8°F6.0°C 36.7°F2.6°C 79% Calm Calm -- 29.84 in1010.5 mb - 0.00 in0.0 mm 0.00 in0.0 mm
07:40 PM 42.6°F5.9°C 36.5°F2.5°C 79% Calm Calm 2.3 mph3.7 kmh 29.84 in1010.5 mb - 0.00 in0.0 mm 0.00 in0.0 mm
07:45 PM 42.5°F5.8°C 36.4°F2.4°C 79% 1.2 mph N1.9 kmh N 3.5 mph5.6 kmh 29.84 in1010.5 mb - 0.00 in0.0 mm 0.00 in0.0 mm
07:50 PM 42.5°F5.8°C 36.4°F2.4°C 79% Calm Calm 2.3 mph3.7 kmh 29.84 in1010.5 mb - 0.00 in0.0 mm 0.00 in0.0 mm
07:55 PM 42.4°F5.8°C 36.3°F2.4°C 79% 2.3 mph N3.7 kmh N 2.3 mph3.7 kmh 29.84 in1010.5 mb - 0.00 in0.0 mm 0.00 in0.0 mm
08:00 PM 42.2°F5.7°C 36.1°F2.3°C 79% 1.2 mph N1.9 kmh N 2.3 mph3.7 kmh 29.84 in1010.5 mb - 0.00 in0.0 mm 0.00 in0.0 mm
08:05 PM 41.9°F5.5°C 35.8°F2.1°C 79% 2.3 mph N3.7 kmh N 2.3 mph3.7 kmh 29.85 in1010.8 mb - 0.00 in0.0 mm 0.00 in0.0 mm
08:10 PM 41.6°F5.3°C 35.6°F2.0°C 79% 2.3 mph N3.7 kmh N 3.5 mph5.6 kmh 29.85 in1010.8 mb - 0.00 in0.0 mm 0.00 in0.0 mm
08:15 PM 41.4°F5.2°C 35.4°F1.9°C 79% 1.2 mph N1.9 kmh N 2.3 mph3.7 kmh 29.85 in1010.8 mb - 0.00 in0.0 mm 0.00 in0.0 mm
08:20 PM 41.2°F5.1°C 35.2°F1.8°C 79% Calm Calm 2.3 mph3.7 kmh 29.85 in1010.8 mb - 0.00 in0.0 mm 0.00 in0.0 mm
08:25 PM 41.0°F5.0°C 35.3°F1.8°C 80% Calm Calm -- 29.86 in1011.2 mb - 0.00 in0.0 mm 0.00 in0.0 mm
08:30 PM 40.9°F4.9°C 34.9°F1.6°C 79% Calm Calm -- 29.86 in1011.2 mb - 0.00 in0.0 mm 0.00 in0.0 mm
08:35 PM 40.7°F4.8°C 34.4°F1.3°C 78% Calm Calm -- 29.86 in1011.2 mb - 0.00 in0.0 mm 0.00 in0.0 mm
08:40 PM 40.7°F4.8°C 34.4°F1.3°C 78% 2.3 mph N3.7 kmh N 3.5 mph5.6 kmh 29.86 in1011.2 mb - 0.00 in0.0 mm 0.00 in0.0 mm
08:45 PM 40.8°F4.9°C 34.5°F1.4°C 78% 1.2 mph N1.9 kmh N 1.2 mph1.9 kmh 29.86 in1011.2 mb - 0.00 in0.0 mm 0.00 in0.0 mm
08:50 PM 40.6°F4.8°C 34.3°F1.3°C 78% 2.3 mph N3.7 kmh N 2.3 mph3.7 kmh 29.86 in1011.2 mb - 0.00 in0.0 mm 0.00 in0.0 mm
08:55 PM 40.5°F4.7°C 34.2°F1.2°C 78% 2.3 mph N3.7 kmh N 2.3 mph3.7 kmh 29.86 in1011.2 mb - 0.00 in0.0 mm 0.00 in0.0 mm
09:00 PM 40.6°F4.8°C 34.3°F1.3°C 78% 2.3 mph NE3.7 kmh NE 3.5 mph5.6 kmh 29.87 in1011.5 mb - 0.00 in0.0 mm 0.00 in0.0 mm
09:05 PM 40.9°F4.9°C 34.6°F1.4°C 78% 2.3 mph NE3.7 kmh NE 2.3 mph3.7 kmh 29.87 in1011.5 mb - 0.00 in0.0 mm 0.00 in0.0 mm
09:10 PM 41.2°F5.1°C 34.9°F1.6°C 78% 2.3 mph NE3.7 kmh NE 3.5 mph5.6 kmh 29.87 in1011.5 mb - 0.00 in0.0 mm 0.00 in0.0 mm
09:15 PM 41.3°F5.2°C 35.0°F1.7°C 78% 2.3 mph NE3.7 kmh NE 3.5 mph5.6 kmh 29.87 in1011.5 mb - 0.00 in0.0 mm 0.00 in0.0 mm
09:20 PM 41.3°F5.2°C 35.0°F1.7°C 78% 1.2 mph NE1.9 kmh NE 2.3 mph3.7 kmh 29.87 in1011.5 mb - 0.00 in0.0 mm 0.00 in0.0 mm
09:25 PM 41.3°F5.2°C 34.9°F1.6°C 78% 2.3 mph NE3.7 kmh NE 3.5 mph5.6 kmh 29.87 in1011.5 mb - 0.00 in0.0 mm 0.00 in0.0 mm
09:30 PM 41.3°F5.2°C 35.0°F1.7°C 78% 1.2 mph NE1.9 kmh NE 3.5 mph5.6 kmh 29.87 in1011.5 mb - 0.00 in0.0 mm 0.00 in0.0 mm
09:35 PM 41.3°F5.2°C 35.0°F1.7°C 78% 2.3 mph NE3.7 kmh NE 3.5 mph5.6 kmh 29.88 in1011.9 mb - 0.00 in0.0 mm 0.00 in0.0 mm
09:40 PM 41.2°F5.1°C 34.9°F1.6°C 78% 3.5 mph NE5.6 kmh NE 3.5 mph5.6 kmh 29.88 in1011.9 mb - 0.00 in0.0 mm 0.00 in0.0 mm
09:45 PM 40.8°F4.9°C 34.5°F1.4°C 78% 2.3 mph NE3.7 kmh NE 3.5 mph5.6 kmh 29.88 in1011.9 mb - 0.00 in0.0 mm 0.00 in0.0 mm
09:50 PM 40.4°F4.7°C 34.1°F1.2°C 78% 1.2 mph NE1.9 kmh NE 3.5 mph5.6 kmh 29.88 in1011.9 mb - 0.00 in0.0 mm 0.00 in0.0 mm
09:55 PM 40.2°F4.6°C 33.9°F1.1°C 78% 2.3 mph N3.7 kmh N 3.5 mph5.6 kmh 29.88 in1011.9 mb - 0.00 in0.0 mm 0.00 in0.0 mm
10:00 PM 40.2°F4.6°C 33.9°F1.1°C 78% 1.2 mph N1.9 kmh N 2.3 mph3.7 kmh 29.87 in1011.5 mb - 0.00 in0.0 mm 0.00 in0.0 mm
10:05 PM 40.0°F4.4°C 33.7°F0.9°C 78% 1.2 mph N1.9 kmh N 2.3 mph3.7 kmh 29.87 in1011.5 mb - 0.00 in0.0 mm 0.00 in0.0 mm
10:10 PM 39.8°F4.3°C 33.5°F0.8°C 78% 1.2 mph N1.9 kmh N 2.3 mph3.7 kmh 29.87 in1011.5 mb - 0.00 in0.0 mm 0.00 in0.0 mm
10:15 PM 39.6°F4.2°C 33.3°F0.7°C 78% 2.3 mph ENE3.7 kmh ENE 3.5 mph5.6 kmh 29.87 in1011.5 mb - 0.00 in0.0 mm 0.00 in0.0 mm
10:20 PM 39.6°F4.2°C 33.6°F0.9°C 79% 1.2 mph NE1.9 kmh NE 2.3 mph3.7 kmh 29.88 in1011.9 mb - 0.00 in0.0 mm 0.00 in0.0 mm
10:25 PM 39.5°F4.2°C 33.5°F0.8°C 79% 2.3 mph NE3.7 kmh NE 3.5 mph5.6 kmh 29.88 in1011.9 mb - 0.00 in0.0 mm 0.00 in0.0 mm
10:30 PM 39.5°F4.2°C 33.5°F0.8°C 79% 2.3 mph NE3.7 kmh NE 3.5 mph5.6 kmh 29.88 in1011.9 mb - 0.00 in0.0 mm 0.00 in0.0 mm
10:35 PM 39.5°F4.2°C 33.5°F0.8°C 79% 2.3 mph NE3.7 kmh NE 3.5 mph5.6 kmh 29.88 in1011.9 mb - 0.00 in0.0 mm 0.00 in0.0 mm
10:40 PM 39.5°F4.2°C 33.5°F0.8°C 79% 2.3 mph NE3.7 kmh NE 3.5 mph5.6 kmh 29.88 in1011.9 mb - 0.00 in0.0 mm 0.00 in0.0 mm
10:45 PM 39.3°F4.1°C 33.0°F0.6°C 78% 1.2 mph NE1.9 kmh NE 2.3 mph3.7 kmh 29.88 in1011.9 mb - 0.00 in0.0 mm 0.00 in0.0 mm
10:50 PM 39.5°F4.2°C 33.5°F0.8°C 79% 2.3 mph NE3.7 kmh NE 4.6 mph7.4 kmh 29.88 in1011.9 mb - 0.00 in0.0 mm 0.00 in0.0 mm
10:55 PM 39.6°F4.2°C 33.6°F0.9°C 79% 2.3 mph ENE3.7 kmh ENE 3.5 mph5.6 kmh 29.88 in1011.9 mb - 0.00 in0.0 mm 0.00 in0.0 mm
11:00 PM 39.6°F4.2°C 33.6°F0.9°C 79% 2.3 mph ENE3.7 kmh ENE 3.5 mph5.6 kmh 29.88 in1011.9 mb - 0.00 in0.0 mm 0.00 in0.0 mm
11:05 PM 39.6°F4.2°C 33.6°F0.9°C 79% 2.3 mph ENE3.7 kmh ENE 3.5 mph5.6 kmh 29.88 in1011.9 mb - 0.00 in0.0 mm 0.00 in0.0 mm
11:10 PM 39.5°F4.2°C 33.5°F0.8°C 79% 1.2 mph ENE1.9 kmh ENE 2.3 mph3.7 kmh 29.88 in1011.9 mb - 0.00 in0.0 mm 0.00 in0.0 mm
11:15 PM 39.3°F4.1°C 33.3°F0.7°C 79% Calm Calm -- 29.88 in1011.9 mb - 0.00 in0.0 mm 0.00 in0.0 mm
11:20 PM 38.9°F3.8°C 32.9°F0.5°C 79% 1.2 mph ENE1.9 kmh ENE 3.5 mph5.6 kmh 29.88 in1011.9 mb - 0.00 in0.0 mm 0.00 in0.0 mm
11:25 PM 38.6°F3.7°C 32.6°F0.3°C 79% Calm Calm -- 29.89 in1012.2 mb - 0.00 in0.0 mm 0.00 in0.0 mm
11:30 PM 38.4°F3.6°C 32.5°F0.3°C 79% Calm Calm -- 29.89 in1012.2 mb - 0.00 in0.0 mm 0.00 in0.0 mm
11:35 PM 38.3°F3.5°C 32.4°F0.2°C 79% Calm Calm -- 29.89 in1012.2 mb - 0.00 in0.0 mm 0.00 in0.0 mm
11:40 PM 38.2°F3.4°C 32.2°F0.1°C 79% Calm Calm -- 29.89 in1012.2 mb - 0.00 in0.0 mm 0.00 in0.0 mm
11:45 PM 38.0°F3.3°C 32.1°F0.1°C 79% Calm Calm -- 29.89 in1012.2 mb - 0.00 in0.0 mm 0.00 in0.0 mm
11:50 PM 38.0°F3.3°C 32.1°F0.1°C 79% Calm Calm -- 29.89 in1012.2 mb - 0.00 in0.0 mm 0.00 in0.0 mm
11:55 PM 38.0°F3.3°C 32.1°F0.1°C 79% Calm Calm -- 29.89 in1012.2 mb - 0.00 in0.0 mm 0.00 in0.0 mm